METAR Data
IDs: Format: Raw Decoded Include TAF

Data at: 1345 UTC 16 Aug 2022

METAR for:KPAE (Everett/Paine Fld, WA, US)
Text:KPAE 161253Z AUTO 05004KT 10SM CLR 16/13 A3009 RMK AO2 SLP187 T01560128
Temperature: 15.6°C ( 60°F)
Dewpoint: 12.8°C ( 55°F) [RH = 83%]
Pressure (altimeter):30.09 inches Hg (1019.0 mb) [Sea level pressure: 1018.7 mb]
Winds:from the NE (50 degrees) at 5 MPH (4 knots; 2.1 m/s)
Visibility:10 or more sm (16+ km)
Ceiling:at least 12,000 feet AGL
Clouds:sky clear below 12,000 feet AGL
QC Flag:automated observation with no human augmentation
Text:KPAE 161153Z AUTO 06005KT 10SM CLR 16/13 A3008 RMK AO2 SLP184 T01560128 10161 20156 53007
Temperature: 15.6°C ( 60°F)
Dewpoint: 12.8°C ( 55°F) [RH = 83%]
Pressure (altimeter):30.08 inches Hg (1018.7 mb) [Sea level pressure: 1018.4 mb]
Winds:from the ENE (60 degrees) at 6 MPH (5 knots; 2.6 m/s)
Visibility:10 or more sm (16+ km)
Ceiling:at least 12,000 feet AGL
Clouds:sky clear below 12,000 feet AGL
QC Flag:automated observation with no human augmentation
Text:KPAE 161053Z AUTO 04004KT 10SM CLR 16/13 A3008 RMK AO2 SLP182 T01610133
Temperature: 16.1°C ( 61°F)
Dewpoint: 13.3°C ( 56°F) [RH = 83%]
Pressure (altimeter):30.08 inches Hg (1018.7 mb) [Sea level pressure: 1018.2 mb]
Winds:from the NE (40 degrees) at 5 MPH (4 knots; 2.1 m/s)
Visibility:10 or more sm (16+ km)
Ceiling:at least 12,000 feet AGL
Clouds:sky clear below 12,000 feet AGL
QC Flag:automated observation with no human augmentation

TAF for:KPAE (Everett/Paine Fld, WA, US) issued at 1121 UTC 16 Aug 2022
Text:KPAE 161121Z 1612/1712 VRB03KT P6SM SCT007 BKN250
Forecast period:1200 to 1300 UTC 16 August 2022
Forecast type:FROM: standard forecast or significant change
Winds:variable direction winds at 3 MPH (3 knots; 1.5 m/s)
Visibility:6 or more sm (10+ km)
Ceiling:25000 feet AGL
Clouds: scattered clouds at 700 feet AGL, broken clouds at 25000 feet AGL
Text:FM161300 VRB04KT P6SM BKN007
Forecast period:1300 to 1700 UTC 16 August 2022
Forecast type:FROM: standard forecast or significant change
Winds:variable direction winds at 5 MPH (4 knots; 2.1 m/s)
Visibility:6 or more sm (10+ km)
Ceiling:700 feet AGL
Clouds: broken clouds at 700 feet AGL
Text:FM161700 32004KT P6SM FEW010 SCT250
Forecast period:1700 to 2000 UTC 16 August 2022
Forecast type:FROM: standard forecast or significant change
Winds:from the NW (320 degrees) at 5 MPH (4 knots; 2.1 m/s)
Visibility:6 or more sm (10+ km)
Ceiling:at least 12,000 feet AGL
Clouds: few clouds at 1000 feet AGL, scattered clouds at 25000 feet AGL
Text:FM162000 34008KT P6SM FEW250
Forecast period:2000 UTC 16 August 2022 to 1200 UTC 17 August 2022
Forecast type:FROM: standard forecast or significant change
Winds:from the NNW (340 degrees) at 9 MPH (8 knots; 4.1 m/s)
Visibility:6 or more sm (10+ km)
Ceiling:at least 12,000 feet AGL
Clouds: few clouds at 25000 feet AGL